createdAt,value
2019-05-23T00:02:41.532Z,8.23
2019-05-23T00:05:13.628Z,8.80
2019-05-23T00:07:43.833Z,7.80
2019-05-23T00:10:15.548Z,9.00
2019-05-23T00:12:45.874Z,9.10
2019-05-23T00:15:22.968Z,8.57
2019-05-23T00:17:53.053Z,8.10
2019-05-23T00:20:25.472Z,8.07
2019-05-23T00:22:55.485Z,8.40
2019-05-23T00:25:25.656Z,10.67
2019-05-23T00:27:56.228Z,8.90
2019-05-23T00:30:34.076Z,7.87
2019-05-23T00:33:11.387Z,9.10
2019-05-23T00:35:42.275Z,9.67
2019-05-23T00:38:13.362Z,9.97
2019-05-23T00:40:43.509Z,9.57
2019-05-23T00:43:13.108Z,9.23
2019-05-23T00:45:43.491Z,8.67
2019-05-23T00:48:13.454Z,8.63
2019-05-23T00:50:44.504Z,8.97
2019-05-23T00:53:14.763Z,9.10
2019-05-23T00:55:44.811Z,9.10
2019-05-23T00:58:15.001Z,11.30
2019-05-23T01:00:44.944Z,10.90
2019-05-23T01:03:16.639Z,9.07
2019-05-23T01:05:46.587Z,10.30
2019-05-23T01:08:18.742Z,10.73
2019-05-23T01:10:49.840Z,10.10
2019-05-23T01:13:20.340Z,8.73
2019-05-23T01:15:50.734Z,9.53
2019-05-23T01:18:20.973Z,9.50
2019-05-23T01:20:52.154Z,8.67
2019-05-23T01:23:23.649Z,10.17
2019-05-23T01:25:53.907Z,10.20
2019-05-23T01:28:23.830Z,10.20
2019-05-23T01:31:07.489Z,10.57
2019-05-23T01:33:39.754Z,10.87
2019-05-23T01:36:10.516Z,10.40
2019-05-23T01:38:41.090Z,11.13
2019-05-23T01:41:12.877Z,10.70
2019-05-23T01:43:42.426Z,11.43
2019-05-23T01:46:13.205Z,10.53
2019-05-23T01:48:42.799Z,12.40
2019-05-23T01:51:14.058Z,12.73
2019-05-23T01:53:43.926Z,12.23
2019-05-23T01:56:13.860Z,12.77
2019-05-23T01:58:44.270Z,12.10
2019-05-23T02:01:15.541Z,12.83
2019-05-23T02:03:46.035Z,13.87
2019-05-23T02:06:15.788Z,14.10
2019-05-23T02:08:45.349Z,12.73
2019-05-23T02:11:16.364Z,12.80
2019-05-23T02:13:46.728Z,13.50
2019-05-23T02:16:16.347Z,15.77
2019-05-23T02:18:46.552Z,14.00
2019-05-23T02:21:17.625Z,14.63
2019-05-23T02:23:47.262Z,15.37
2019-05-23T02:26:17.091Z,14.93
2019-05-23T02:28:47.815Z,16.13
2019-05-23T02:31:17.749Z,16.43
2019-05-23T02:33:47.890Z,18.30
2019-05-23T02:36:17.555Z,18.70
2019-05-23T02:38:52.424Z,17.73
2019-05-23T02:41:41.925Z,19.57
2019-05-23T02:44:13.121Z,18.33
2019-05-23T02:46:50.005Z,17.77
2019-05-23T02:49:25.402Z,18.67
2019-05-23T02:51:56.734Z,18.73
2019-05-23T02:54:29.311Z,19.20
2019-05-23T02:57:00.389Z,19.27
2019-05-23T02:59:49.031Z,19.87
2019-05-23T03:02:35.128Z,21.50
2019-05-23T03:05:10.962Z,19.70
2019-05-23T03:07:41.979Z,20.03
2019-05-23T03:10:13.227Z,17.40
2019-05-23T03:12:43.768Z,17.57
2019-05-23T03:15:14.606Z,17.27
2019-05-23T03:17:47.413Z,17.87
2019-05-23T03:20:17.045Z,17.63
2019-05-23T03:22:54.160Z,19.30
2019-05-23T03:25:39.645Z,17.83
2019-05-23T03:28:12.503Z,18.77
2019-05-23T03:30:44.069Z,18.70
2019-05-23T03:33:15.120Z,18.67
2019-05-23T03:35:46.684Z,18.43
2019-05-23T03:38:16.948Z,18.43
2019-05-23T03:40:47.336Z,19.00
2019-05-23T03:43:17.491Z,18.00
2019-05-23T03:46:07.121Z,18.60
2019-05-23T03:48:38.599Z,18.27
2019-05-23T03:51:09.998Z,18.60
2019-05-23T03:53:41.303Z,18.87
2019-05-23T03:56:11.178Z,19.07
2019-05-23T03:58:42.201Z,21.77
2019-05-23T04:01:13.373Z,19.93
2019-05-23T04:03:45.008Z,17.90
2019-05-23T04:06:15.347Z,18.00
2019-05-23T04:08:45.216Z,14.97
2019-05-23T04:11:14.924Z,15.40
2019-05-23T04:13:44.642Z,14.73
2019-05-23T04:16:14.287Z,14.50
2019-05-23T04:18:44.009Z,13.10
2019-05-23T04:21:14.122Z,11.53
2019-05-23T04:23:43.656Z,12.43
2019-05-23T04:26:13.208Z,11.87
2019-05-23T04:28:43.352Z,10.70
2019-05-23T04:31:13.881Z,12.23
2019-05-23T04:33:43.414Z,10.40
2019-05-23T04:36:13.225Z,10.50
2019-05-23T04:38:42.974Z,9.77
2019-05-23T04:41:13.156Z,9.60
2019-05-23T04:43:42.975Z,8.70
2019-05-23T04:46:13.278Z,8.50
2019-05-23T04:48:43.211Z,7.80
2019-05-23T04:51:12.677Z,7.87
2019-05-23T04:53:42.148Z,7.50
2019-05-23T04:56:12.500Z,7.23
2019-05-23T04:58:42.670Z,7.07
2019-05-23T05:01:12.832Z,6.93
2019-05-23T05:03:44.688Z,5.80
2019-05-23T05:06:14.740Z,7.67
2019-05-23T05:08:44.509Z,7.00
2019-05-23T05:11:14.110Z,8.40
2019-05-23T05:13:44.048Z,6.60
2019-05-23T05:16:14.210Z,7.93
2019-05-23T05:18:44.205Z,6.07
2019-05-23T05:21:13.679Z,6.43
2019-05-23T05:23:43.145Z,6.17
2019-05-23T05:26:15.726Z,6.63
2019-05-23T05:28:45.438Z,6.10
2019-05-23T05:31:15.071Z,7.13
2019-05-23T05:33:44.559Z,6.53
2019-05-23T05:36:14.097Z,5.87
2019-05-23T05:38:44.197Z,7.00
2019-05-23T05:41:14.636Z,7.30
2019-05-23T05:43:44.405Z,6.60
2019-05-23T05:46:14.200Z,7.03
2019-05-23T05:48:43.852Z,7.93
2019-05-23T05:51:13.732Z,8.03
2019-05-23T05:53:43.413Z,9.77
2019-05-23T05:56:12.955Z,8.80
2019-05-23T05:58:43.129Z,7.53
2019-05-23T06:01:14.087Z,7.33
2019-05-23T06:03:44.030Z,7.90
2019-05-23T06:06:20.804Z,8.77
2019-05-23T06:08:52.124Z,9.00
2019-05-23T06:11:22.059Z,8.20
2019-05-23T06:13:51.989Z,7.03
2019-05-23T06:16:21.769Z,9.27
2019-05-23T06:18:51.416Z,9.30
2019-05-23T06:21:22.868Z,10.23
2019-05-23T06:23:53.122Z,7.73
2019-05-23T06:26:22.870Z,10.30
2019-05-23T06:28:52.435Z,7.37
2019-05-23T06:31:22.332Z,6.00
2019-05-23T06:33:52.639Z,7.00
2019-05-23T06:36:22.359Z,7.40
2019-05-23T06:38:53.217Z,7.93
2019-05-23T06:41:24.130Z,9.40
2019-05-23T06:43:54.141Z,10.90
2019-05-23T06:46:24.250Z,7.83
2019-05-23T06:48:53.859Z,7.20
2019-05-23T06:51:23.789Z,9.20
2019-05-23T06:53:53.817Z,8.07
2019-05-23T06:56:23.459Z,12.13
2019-05-23T06:58:53.104Z,9.33
2019-05-23T07:01:23.073Z,7.17
2019-05-23T07:03:53.161Z,7.17
2019-05-23T07:06:24.532Z,6.07
2019-05-23T07:08:54.688Z,6.00
2019-05-23T07:11:25.324Z,6.20
2019-05-23T07:13:55.020Z,6.40
2019-05-23T07:16:24.551Z,6.43
2019-05-23T07:18:54.156Z,5.20
2019-05-23T07:21:23.967Z,5.30
2019-05-23T07:23:53.784Z,6.47
2019-05-23T07:26:24.016Z,4.30
2019-05-23T07:28:54.148Z,4.67
2019-05-23T07:31:24.054Z,3.90
2019-05-23T07:34:01.905Z,4.50
2019-05-23T07:36:25.280Z,4.63
2019-05-23T07:38:55.102Z,5.70
2019-05-23T07:41:26.116Z,4.97
2019-05-23T07:43:55.792Z,4.23
2019-05-23T07:46:25.652Z,4.70
2019-05-23T07:48:55.649Z,5.87
2019-05-23T07:51:25.676Z,3.97
2019-05-23T07:53:56.853Z,4.87
2019-05-23T07:56:28.390Z,3.90
2019-05-23T07:58:58.470Z,3.67
2019-05-23T08:01:29.768Z,2.50
2019-05-23T08:04:00.053Z,2.97
2019-05-23T08:06:29.581Z,2.53
2019-05-23T08:08:59.656Z,2.40
2019-05-23T08:11:29.189Z,2.23
2019-05-23T08:13:58.808Z,2.40
2019-05-23T08:16:28.527Z,2.20
2019-05-23T08:18:58.614Z,2.27
2019-05-23T08:21:28.711Z,2.00
2019-05-23T08:23:58.352Z,2.00
2019-05-23T08:26:29.625Z,1.73
2019-05-23T08:29:24.061Z,1.40
2019-05-23T08:31:31.130Z,1.97
2019-05-23T08:34:01.753Z,1.40
2019-05-23T08:36:32.292Z,1.10
2019-05-23T08:39:03.667Z,1.30
2019-05-23T08:41:34.845Z,2.00
2019-05-23T08:44:05.984Z,1.37
2019-05-23T08:46:36.084Z,1.50
2019-05-23T08:49:06.169Z,1.60
2019-05-23T08:51:35.839Z,1.60
2019-05-23T08:54:06.727Z,1.90
2019-05-23T08:56:37.347Z,4.80
2019-05-23T08:59:07.493Z,5.80
2019-05-23T09:01:37.622Z,4.70
2019-05-23T09:04:09.199Z,1.60
2019-05-23T09:06:39.118Z,1.63
2019-05-23T09:09:28.449Z,0.80
2019-05-23T09:11:42.143Z,1.90
2019-05-23T09:14:11.746Z,2.40
2019-05-23T09:16:42.204Z,2.13
2019-05-23T09:19:11.928Z,1.70
2019-05-23T09:21:42.365Z,1.40
2019-05-23T09:24:12.863Z,1.20
2019-05-23T09:26:42.620Z,1.50
2019-05-23T09:29:12.350Z,1.23
2019-05-23T09:31:41.943Z,1.27
2019-05-23T09:34:12.013Z,1.30
2019-05-23T09:36:42.234Z,1.50
2019-05-23T09:39:13.585Z,2.20
2019-05-23T09:41:43.041Z,4.60
2019-05-23T09:44:13.080Z,6.00
2019-05-23T09:46:42.866Z,1.93
2019-05-23T09:49:12.336Z,1.50
2019-05-23T09:51:41.787Z,2.73
2019-05-23T09:54:11.461Z,1.40
2019-05-23T09:56:42.303Z,1.50
2019-05-23T09:59:11.877Z,3.47
2019-05-23T10:01:41.520Z,1.70
2019-05-23T10:04:11.428Z,1.50
2019-05-23T10:06:41.024Z,1.47
2019-05-23T10:09:10.552Z,1.17
2019-05-23T10:11:40.558Z,1.30
2019-05-23T10:14:11.909Z,1.40
2019-05-23T10:16:42.343Z,1.03
2019-05-23T10:19:11.978Z,1.33
2019-05-23T10:21:41.508Z,1.83
2019-05-23T10:24:11.203Z,1.90
2019-05-23T10:26:40.715Z,1.43
2019-05-23T10:29:10.280Z,2.50
2019-05-23T10:31:39.983Z,4.00
2019-05-23T10:34:09.499Z,2.53
2019-05-23T10:36:39.669Z,3.07
2019-05-23T10:39:11.952Z,1.90
2019-05-23T10:41:42.060Z,2.27
2019-05-23T10:44:12.087Z,3.30
2019-05-23T10:46:41.700Z,1.97
2019-05-23T10:49:11.707Z,1.90
2019-05-23T10:51:41.703Z,1.50
2019-05-23T10:54:11.463Z,2.00
2019-05-23T10:56:41.068Z,2.10
2019-05-23T10:59:10.589Z,2.00
2019-05-23T11:01:40.138Z,1.57
2019-05-23T11:04:10.303Z,1.97
2019-05-23T11:06:40.569Z,1.60
2019-05-23T11:09:11.548Z,1.50
2019-05-23T11:11:41.615Z,1.60
2019-05-23T11:14:11.581Z,1.57
2019-05-23T11:16:41.876Z,1.23
2019-05-23T11:19:12.297Z,2.30
2019-05-23T11:21:41.855Z,1.60
2019-05-23T11:24:12.481Z,1.40
2019-05-23T11:26:42.126Z,1.77
2019-05-23T11:29:11.719Z,1.70
2019-05-23T11:31:42.191Z,1.57
2019-05-23T11:34:11.842Z,1.70
2019-05-23T11:36:41.581Z,1.83
2019-05-23T11:39:12.584Z,2.17
2019-05-23T11:41:42.209Z,1.50
2019-05-23T11:44:11.760Z,1.90
2019-05-23T11:46:41.620Z,1.60
2019-05-23T11:49:11.193Z,2.33
2019-05-23T11:51:40.700Z,1.87
2019-05-23T11:54:10.626Z,1.77
2019-05-23T11:56:41.568Z,2.27
2019-05-23T11:59:11.794Z,2.00
2019-05-23T12:01:43.420Z,1.30
2019-05-23T12:04:14.662Z,1.30
2019-05-23T12:06:55.245Z,1.70
2019-05-23T12:09:20.860Z,1.80
2019-05-23T12:11:50.423Z,2.87
2019-05-23T12:14:20.313Z,2.03
2019-05-23T12:16:49.947Z,1.97
2019-05-23T12:19:20.136Z,1.57
2019-05-23T12:21:49.673Z,1.83
2019-05-23T12:24:19.418Z,1.30
2019-05-23T12:26:49.172Z,1.00
2019-05-23T12:29:19.097Z,2.50
2019-05-23T12:31:49.788Z,1.33
2019-05-23T12:34:19.756Z,1.23
2019-05-23T12:36:49.455Z,3.60
2019-05-23T12:39:19.379Z,1.87
2019-05-23T12:41:49.100Z,1.20
2019-05-23T12:44:18.826Z,1.63
2019-05-23T12:46:48.474Z,1.30
2019-05-23T12:49:22.473Z,1.43
2019-05-23T12:51:53.623Z,1.63
2019-05-23T12:54:23.900Z,1.40
2019-05-23T12:56:54.035Z,1.30
2019-05-23T12:59:24.108Z,1.07
2019-05-23T13:01:55.260Z,1.37
2019-05-23T13:04:24.896Z,1.50
2019-05-23T13:06:54.638Z,1.30
2019-05-23T13:09:24.726Z,1.13
2019-05-23T13:11:54.348Z,1.40
2019-05-23T13:14:24.113Z,1.00
2019-05-23T13:16:53.584Z,1.93
2019-05-23T13:19:23.635Z,1.50
2019-05-23T13:21:53.435Z,1.20
2019-05-23T13:24:23.405Z,1.40
2019-05-23T13:26:53.098Z,0.80
2019-05-23T13:29:24.434Z,1.10
2019-05-23T13:31:54.416Z,1.27
2019-05-23T13:34:23.885Z,1.47
2019-05-23T13:36:54.035Z,1.43
2019-05-23T13:39:23.873Z,1.07
2019-05-23T13:41:53.732Z,0.97
2019-05-23T13:44:34.031Z,1.00
2019-05-23T13:46:55.104Z,2.83
2019-05-23T13:49:24.972Z,2.60
2019-05-23T13:51:54.880Z,1.70
2019-05-23T13:54:24.987Z,3.90
2019-05-23T13:56:54.995Z,6.20
2019-05-23T13:59:24.473Z,2.63
2019-05-23T14:01:54.004Z,1.50
2019-05-23T14:04:23.708Z,1.57
2019-05-23T14:06:54.205Z,1.10
2019-05-23T14:09:25.411Z,1.10
2019-05-23T14:12:19.943Z,0.90
2019-05-23T14:14:26.839Z,1.17
2019-05-23T14:16:58.256Z,1.00
2019-05-23T14:19:29.544Z,1.33
2019-05-23T14:22:00.056Z,1.37
2019-05-23T14:24:30.082Z,1.47
2019-05-23T14:27:01.337Z,1.40
2019-05-23T14:29:31.281Z,1.00
2019-05-23T14:32:11.944Z,0.97
2019-05-23T14:34:41.819Z,1.27
2019-05-23T14:37:12.983Z,1.03
2019-05-23T14:39:43.618Z,0.80
2019-05-23T14:42:31.192Z,1.97
2019-05-23T14:45:01.351Z,1.07
2019-05-23T14:47:35.299Z,1.10
2019-05-23T14:50:13.930Z,0.70
2019-05-23T14:52:48.428Z,1.10
2019-05-23T14:55:17.980Z,1.47
2019-05-23T14:57:47.440Z,1.33
2019-05-23T15:00:19.476Z,1.03
2019-05-23T15:02:49.045Z,2.60
2019-05-23T15:05:18.744Z,1.70
2019-05-23T15:07:48.604Z,1.50
2019-05-23T15:10:19.977Z,1.53
2019-05-23T15:12:49.852Z,2.20
2019-05-23T15:15:19.986Z,1.33
2019-05-23T15:17:49.861Z,1.37
2019-05-23T15:20:19.488Z,2.50
2019-05-23T15:22:49.172Z,1.30
2019-05-23T15:25:19.217Z,1.63
2019-05-23T15:27:49.079Z,1.40
2019-05-23T15:30:18.995Z,1.30
2019-05-23T15:32:48.541Z,1.30
2019-05-23T15:35:18.156Z,1.20
2019-05-23T15:37:47.615Z,1.40
2019-05-23T15:40:17.760Z,1.83
2019-05-23T15:42:47.382Z,1.23
2019-05-23T15:45:17.098Z,1.30
2019-05-23T15:47:46.993Z,1.50
2019-05-23T15:50:18.500Z,1.60
2019-05-23T15:52:49.803Z,2.07
2019-05-23T15:55:26.966Z,1.90
2019-05-23T15:58:13.631Z,1.97
2019-05-23T16:00:47.961Z,1.57
2019-05-23T16:03:22.517Z,2.00
2019-05-23T16:05:52.240Z,1.40
2019-05-23T16:08:21.787Z,1.53
2019-05-23T16:10:51.433Z,1.53
2019-05-23T16:13:21.060Z,1.73
2019-05-23T16:15:50.526Z,1.70
2019-05-23T16:18:20.662Z,1.90
2019-05-23T16:20:50.464Z,2.80
2019-05-23T16:23:20.000Z,2.87
2019-05-23T16:25:49.468Z,3.27
2019-05-23T16:28:19.485Z,2.27
2019-05-23T16:30:49.041Z,1.70
2019-05-23T16:33:18.505Z,2.30
2019-05-23T16:35:48.254Z,2.07
2019-05-23T16:38:17.708Z,1.80
2019-05-23T16:40:47.333Z,1.60
2019-05-23T16:43:17.407Z,2.07
2019-05-23T16:45:47.224Z,1.60
2019-05-23T16:48:16.865Z,1.50
2019-05-23T16:50:46.315Z,2.33
2019-05-23T16:53:16.235Z,2.03
2019-05-23T16:56:04.173Z,1.60
2019-05-23T16:58:38.180Z,2.13
2019-05-23T17:01:24.425Z,1.97
2019-05-23T17:04:03.256Z,1.67
2019-05-23T17:06:34.858Z,1.40
2019-05-23T17:09:07.836Z,1.47
2019-05-23T17:11:38.999Z,2.00
2019-05-23T17:14:10.465Z,3.60
2019-05-23T17:16:44.265Z,2.23
2019-05-23T17:19:15.811Z,1.80
2019-05-23T17:21:55.586Z,2.43
2019-05-23T17:24:27.499Z,1.90
2019-05-23T17:27:15.427Z,1.47
2019-05-23T17:29:59.619Z,1.37
2019-05-23T17:32:30.880Z,1.87
2019-05-23T17:35:00.564Z,1.10
2019-05-23T17:37:30.095Z,1.63
2019-05-23T17:39:59.837Z,1.30
2019-05-23T17:42:29.468Z,2.43
2019-05-23T17:44:59.332Z,2.03
2019-05-23T17:47:29.433Z,2.70
2019-05-23T17:49:58.951Z,1.87
2019-05-23T17:52:28.547Z,1.87
2019-05-23T17:54:58.219Z,1.70
2019-05-23T17:57:29.321Z,1.60
2019-05-23T17:59:59.041Z,1.60
2019-05-23T18:02:28.917Z,2.03
2019-05-23T18:04:58.510Z,1.53
2019-05-23T18:07:47.927Z,1.40
2019-05-23T18:10:18.433Z,1.40
2019-05-23T18:12:48.188Z,1.63
2019-05-23T18:15:17.641Z,1.53
2019-05-23T18:17:49.416Z,1.50
2019-05-23T18:20:19.342Z,1.20
2019-05-23T18:22:49.528Z,1.77
2019-05-23T18:25:19.303Z,1.30
2019-05-23T18:27:49.113Z,1.87
2019-05-23T18:30:20.484Z,1.60
2019-05-23T18:32:49.940Z,1.77
2019-05-23T18:35:19.918Z,1.77
2019-05-23T18:37:49.583Z,1.57
2019-05-23T18:40:19.291Z,1.70
2019-05-23T18:42:48.749Z,2.47
2019-05-23T18:45:19.021Z,1.70
2019-05-23T18:47:49.129Z,2.80
2019-05-23T18:50:19.251Z,4.60
2019-05-23T18:52:51.821Z,9.00
2019-05-23T18:55:21.052Z,7.23
2019-05-23T18:57:51.017Z,5.13
2019-05-23T19:00:23.600Z,3.93
2019-05-23T19:02:53.051Z,2.80
2019-05-23T19:05:23.023Z,2.27
2019-05-23T19:07:52.576Z,2.40
2019-05-23T19:10:22.640Z,3.07
2019-05-23T19:12:52.209Z,3.53
2019-05-23T19:15:21.905Z,3.90
2019-05-23T19:17:51.621Z,5.30
2019-05-23T19:20:21.352Z,7.80
2019-05-23T19:22:50.956Z,9.80
2019-05-23T19:25:20.993Z,8.50
2019-05-23T19:27:50.783Z,5.70
2019-05-23T19:30:20.921Z,7.57
2019-05-23T19:32:50.375Z,9.53
2019-05-23T19:35:20.405Z,9.07
2019-05-23T19:37:49.855Z,4.93
2019-05-23T19:40:19.800Z,14.83
2019-05-23T19:42:49.707Z,19.03
2019-05-23T19:45:19.392Z,5.93
2019-05-23T19:47:49.160Z,5.67
2019-05-23T19:50:19.052Z,5.77
2019-05-23T19:52:49.115Z,7.23
2019-05-23T19:55:19.080Z,17.27
2019-05-23T19:57:49.258Z,16.90
2019-05-23T20:00:20.839Z,12.77
2019-05-23T20:02:52.216Z,14.40
2019-05-23T20:05:26.513Z,12.50
2019-05-23T20:07:56.356Z,7.60
2019-05-23T20:10:26.445Z,7.43
2019-05-23T20:12:56.033Z,6.90
2019-05-23T20:15:25.967Z,4.10
2019-05-23T20:17:55.528Z,2.63
2019-05-23T20:20:25.467Z,3.00
2019-05-23T20:22:55.397Z,2.40
2019-05-23T20:25:25.683Z,2.90
2019-05-23T20:27:56.558Z,2.33
2019-05-23T20:30:44.984Z,2.40
2019-05-23T20:33:15.035Z,3.10
2019-05-23T20:35:44.771Z,3.37
2019-05-23T20:38:14.363Z,3.10
2019-05-23T20:40:43.949Z,2.80
2019-05-23T20:43:13.543Z,2.47
2019-05-23T20:45:43.204Z,2.47
2019-05-23T20:48:12.880Z,2.83
2019-05-23T20:50:42.571Z,2.30
2019-05-23T20:53:12.376Z,2.87
2019-05-23T20:55:42.874Z,2.67
2019-05-23T20:58:12.545Z,2.07
2019-05-23T21:00:44.154Z,2.30
2019-05-23T21:03:13.787Z,2.30
2019-05-23T21:05:43.248Z,1.93
2019-05-23T21:08:12.773Z,2.30
2019-05-23T21:10:45.308Z,3.57
2019-05-23T21:13:15.097Z,2.30
2019-05-23T21:15:44.859Z,2.03
2019-05-23T21:18:14.549Z,2.90
2019-05-23T21:20:44.356Z,2.30
2019-05-23T21:23:14.055Z,1.57
2019-05-23T21:25:51.183Z,1.80
2019-05-23T21:28:20.699Z,1.93
2019-05-23T21:30:50.441Z,2.27
2019-05-23T21:33:20.019Z,1.63
2019-05-23T21:35:49.488Z,2.10
2019-05-23T21:38:19.003Z,2.10
2019-05-23T21:40:48.474Z,2.60
2019-05-23T21:43:17.984Z,2.80
2019-05-23T21:45:47.461Z,2.50
2019-05-23T21:48:17.314Z,1.90
2019-05-23T21:50:46.971Z,2.10
2019-05-23T21:53:16.437Z,2.80
2019-05-23T21:55:46.308Z,2.20
2019-05-23T21:58:16.312Z,1.97
2019-05-23T22:01:08.476Z,1.83
2019-05-23T22:03:53.500Z,2.03
2019-05-23T22:06:32.156Z,1.73
2019-05-23T22:09:02.069Z,2.20
2019-05-23T22:11:31.533Z,2.37
2019-05-23T22:14:01.000Z,1.97
2019-05-23T22:16:30.537Z,2.10
2019-05-23T22:19:00.175Z,2.60
2019-05-23T22:21:29.698Z,2.10
2019-05-23T22:23:59.166Z,2.40
2019-05-23T22:26:28.859Z,2.10
2019-05-23T22:28:58.343Z,2.27
2019-05-23T22:31:28.028Z,2.50
2019-05-23T22:34:11.160Z,2.30
2019-05-23T22:36:40.693Z,1.93
2019-05-23T22:39:10.231Z,1.63
2019-05-23T22:41:39.767Z,1.80
2019-05-23T22:44:09.511Z,1.70
2019-05-23T22:46:39.507Z,1.97
2019-05-23T22:49:09.002Z,2.53
2019-05-23T22:51:38.784Z,2.70
2019-05-23T22:54:08.249Z,1.73
2019-05-23T22:56:37.709Z,2.00
2019-05-23T22:59:07.510Z,1.90
2019-05-23T23:01:37.648Z,2.23
2019-05-23T23:04:07.858Z,2.10
2019-05-23T23:06:37.784Z,2.00
2019-05-23T23:09:07.785Z,2.27
2019-05-23T23:11:37.349Z,2.10
2019-05-23T23:14:07.215Z,2.07
2019-05-23T23:16:36.721Z,1.80
2019-05-23T23:19:06.883Z,2.57
2019-05-23T23:21:36.593Z,2.27
2019-05-23T23:24:06.261Z,2.50
2019-05-23T23:26:36.031Z,2.60
2019-05-23T23:29:05.788Z,2.40
2019-05-23T23:31:35.444Z,2.57
2019-05-23T23:34:05.223Z,2.33
2019-05-23T23:36:34.692Z,2.70
2019-05-23T23:39:06.670Z,2.70
2019-05-23T23:41:36.206Z,2.53
2019-05-23T23:44:08.559Z,2.43
2019-05-23T23:46:56.316Z,3.33
2019-05-23T23:49:43.771Z,2.97
2019-05-23T23:52:31.351Z,2.60
2019-05-23T23:55:19.016Z,2.80
2019-05-23T23:57:59.786Z,2.43
